sensor_id;sensor_type;location;lat;lon;timestamp;P1;durP1;ratioP1;P2;durP2;ratioP2
70545;SDS011;58098;51.680;5.134;2023-09-18T00:01:36;40.60;;;28.70;;
70545;SDS011;58098;51.680;5.134;2023-09-18T00:04:04;34.55;;;24.67;;
70545;SDS011;58098;51.680;5.134;2023-09-18T00:06:30;43.90;;;27.70;;
70545;SDS011;58098;51.680;5.134;2023-09-18T00:08:55;42.30;;;28.93;;
70545;SDS011;58098;51.680;5.134;2023-09-18T00:11:21;46.60;;;28.80;;
70545;SDS011;58098;51.680;5.134;2023-09-18T00:13:46;41.83;;;28.33;;
70545;SDS011;58098;51.680;5.134;2023-09-18T00:16:12;44.03;;;28.83;;
70545;SDS011;58098;51.680;5.134;2023-09-18T00:18:37;39.30;;;27.43;;
70545;SDS011;58098;51.680;5.134;2023-09-18T00:21:03;44.38;;;27.55;;
70545;SDS011;58098;51.680;5.134;2023-09-18T00:23:29;43.00;;;27.17;;
70545;SDS011;58098;51.680;5.134;2023-09-18T00:25:54;45.50;;;27.80;;
70545;SDS011;58098;51.680;5.134;2023-09-18T00:28:19;42.10;;;26.50;;
70545;SDS011;58098;51.680;5.134;2023-09-18T00:30:48;42.10;;;27.38;;
70545;SDS011;58098;51.680;5.134;2023-09-18T00:33:15;43.70;;;27.97;;
70545;SDS011;58098;51.680;5.134;2023-09-18T00:35:40;46.22;;;28.30;;
70545;SDS011;58098;51.680;5.134;2023-09-18T00:38:10;44.60;;;27.10;;
70545;SDS011;58098;51.680;5.134;2023-09-18T00:40:35;39.67;;;27.67;;
70545;SDS011;58098;51.680;5.134;2023-09-18T00:43:01;42.57;;;26.67;;
70545;SDS011;58098;51.680;5.134;2023-09-18T00:45:27;40.85;;;29.08;;
70545;SDS011;58098;51.680;5.134;2023-09-18T00:47:52;42.33;;;27.97;;
70545;SDS011;58098;51.680;5.134;2023-09-18T00:50:19;45.45;;;29.35;;
70545;SDS011;58098;51.680;5.134;2023-09-18T00:52:44;43.43;;;28.77;;
70545;SDS011;58098;51.680;5.134;2023-09-18T00:55:10;34.10;;;24.00;;
70545;SDS011;58098;51.680;5.134;2023-09-18T00:57:36;44.20;;;28.35;;
70545;SDS011;58098;51.680;5.134;2023-09-18T01:00:03;45.05;;;28.50;;
70545;SDS011;58098;51.680;5.134;2023-09-18T01:02:30;29.90;;;20.87;;
70545;SDS011;58098;51.680;5.134;2023-09-18T01:04:56;37.45;;;25.98;;
70545;SDS011;58098;51.680;5.134;2023-09-18T01:07:22;39.28;;;26.00;;
70545;SDS011;58098;51.680;5.134;2023-09-18T01:09:48;42.87;;;28.07;;
70545;SDS011;58098;51.680;5.134;2023-09-18T01:15:14;47.40;;;29.67;;
70545;SDS011;58098;51.680;5.134;2023-09-18T01:17:45;46.83;;;28.80;;
70545;SDS011;58098;51.680;5.134;2023-09-18T01:20:11;44.88;;;27.73;;
70545;SDS011;58098;51.680;5.134;2023-09-18T01:22:37;41.42;;;27.08;;
70545;SDS011;58098;51.680;5.134;2023-09-18T01:25:03;43.40;;;26.57;;
70545;SDS011;58098;51.680;5.134;2023-09-18T01:27:29;40.03;;;26.67;;
70545;SDS011;58098;51.680;5.134;2023-09-18T01:29:54;43.70;;;26.97;;
70545;SDS011;58098;51.680;5.134;2023-09-18T01:32:20;43.00;;;27.87;;
70545;SDS011;58098;51.680;5.134;2023-09-18T01:34:52;40.20;;;27.40;;
70545;SDS011;58098;51.680;5.134;2023-09-18T01:37:19;43.15;;;27.50;;
70545;SDS011;58098;51.680;5.134;2023-09-18T01:39:48;43.40;;;27.63;;
70545;SDS011;58098;51.680;5.134;2023-09-18T01:42:15;42.00;;;26.77;;
70545;SDS011;58098;51.680;5.134;2023-09-18T01:44:42;41.88;;;25.50;;
70545;SDS011;58098;51.680;5.134;2023-09-18T01:47:09;41.90;;;25.55;;
70545;SDS011;58098;51.680;5.134;2023-09-18T01:49:38;42.92;;;26.38;;
70545;SDS011;58098;51.680;5.134;2023-09-18T01:52:04;40.08;;;27.15;;
70545;SDS011;58098;51.680;5.134;2023-09-18T01:54:31;38.93;;;25.83;;
70545;SDS011;58098;51.680;5.134;2023-09-18T01:56:57;40.60;;;26.13;;
70545;SDS011;58098;51.680;5.134;2023-09-18T01:59:23;37.53;;;26.07;;
70545;SDS011;58098;51.680;5.134;2023-09-18T02:01:49;39.13;;;25.10;;
70545;SDS011;58098;51.680;5.134;2023-09-18T02:04:15;33.63;;;23.20;;
70545;SDS011;58098;51.680;5.134;2023-09-18T02:06:41;41.27;;;24.23;;
70545;SDS011;58098;51.680;5.134;2023-09-18T02:09:06;35.80;;;21.95;;
70545;SDS011;58098;51.680;5.134;2023-09-18T02:11:39;33.17;;;22.13;;
70545;SDS011;58098;51.680;5.134;2023-09-18T02:14:05;33.53;;;21.42;;
70545;SDS011;58098;51.680;5.134;2023-09-18T02:16:34;30.25;;;20.05;;
70545;SDS011;58098;51.680;5.134;2023-09-18T02:19:06;34.65;;;20.48;;
70545;SDS011;58098;51.680;5.134;2023-09-18T02:21:32;31.05;;;20.20;;
70545;SDS011;58098;51.680;5.134;2023-09-18T02:23:57;34.30;;;18.97;;
70545;SDS011;58098;51.680;5.134;2023-09-18T02:26:23;30.47;;;20.47;;
70545;SDS011;58098;51.680;5.134;2023-09-18T02:28:51;27.40;;;19.30;;
70545;SDS011;58098;51.680;5.134;2023-09-18T02:31:18;28.98;;;19.08;;
70545;SDS011;58098;51.680;5.134;2023-09-18T02:33:43;33.10;;;17.63;;
70545;SDS011;58098;51.680;5.134;2023-09-18T02:36:08;25.17;;;18.40;;
70545;SDS011;58098;51.680;5.134;2023-09-18T02:38:34;26.43;;;17.93;;
70545;SDS011;58098;51.680;5.134;2023-09-18T02:40:59;23.00;;;16.13;;
70545;SDS011;58098;51.680;5.134;2023-09-18T02:43:25;26.67;;;16.92;;
70545;SDS011;58098;51.680;5.134;2023-09-18T02:45:51;25.87;;;15.93;;
70545;SDS011;58098;51.680;5.134;2023-09-18T02:48:17;25.58;;;16.60;;
70545;SDS011;58098;51.680;5.134;2023-09-18T02:50:43;23.65;;;16.85;;
70545;SDS011;58098;51.680;5.134;2023-09-18T02:53:20;27.23;;;15.60;;
70545;SDS011;58098;51.680;5.134;2023-09-18T02:55:47;26.50;;;15.60;;
70545;SDS011;58098;51.680;5.134;2023-09-18T02:58:13;25.10;;;16.02;;
70545;SDS011;58098;51.680;5.134;2023-09-18T03:00:42;23.20;;;15.23;;
70545;SDS011;58098;51.680;5.134;2023-09-18T03:03:09;23.90;;;15.45;;
70545;SDS011;58098;51.680;5.134;2023-09-18T03:05:35;24.00;;;15.63;;
70545;SDS011;58098;51.680;5.134;2023-09-18T03:08:01;23.38;;;16.13;;
70545;SDS011;58098;51.680;5.134;2023-09-18T03:10:27;24.80;;;15.27;;
70545;SDS011;58098;51.680;5.134;2023-09-18T03:12:52;22.93;;;14.23;;
70545;SDS011;58098;51.680;5.134;2023-09-18T03:15:18;23.25;;;14.65;;
70545;SDS011;58098;51.680;5.134;2023-09-18T03:17:43;23.40;;;14.60;;
70545;SDS011;58098;51.680;5.134;2023-09-18T03:20:09;24.70;;;14.47;;
70545;SDS011;58098;51.680;5.134;2023-09-18T03:22:35;23.80;;;14.30;;
70545;SDS011;58098;51.680;5.134;2023-09-18T03:25:00;23.40;;;14.63;;
70545;SDS011;58098;51.680;5.134;2023-09-18T03:27:26;26.87;;;15.60;;
70545;SDS011;58098;51.680;5.134;2023-09-18T03:29:54;23.93;;;14.13;;
70545;SDS011;58098;51.680;5.134;2023-09-18T03:32:20;22.80;;;13.98;;
70545;SDS011;58098;51.680;5.134;2023-09-18T03:34:45;22.33;;;14.63;;
70545;SDS011;58098;51.680;5.134;2023-09-18T03:37:11;22.33;;;14.07;;
70545;SDS011;58098;51.680;5.134;2023-09-18T03:39:36;20.90;;;14.73;;
70545;SDS011;58098;51.680;5.134;2023-09-18T03:42:01;21.10;;;12.67;;
70545;SDS011;58098;51.680;5.134;2023-09-18T03:44:28;22.88;;;13.57;;
70545;SDS011;58098;51.680;5.134;2023-09-18T03:46:53;19.90;;;12.83;;
70545;SDS011;58098;51.680;5.134;2023-09-18T03:49:18;23.67;;;12.87;;
70545;SDS011;58098;51.680;5.134;2023-09-18T03:51:44;20.63;;;12.27;;
70545;SDS011;58098;51.680;5.134;2023-09-18T03:54:09;24.15;;;13.98;;
70545;SDS011;58098;51.680;5.134;2023-09-18T03:56:35;26.10;;;14.57;;
70545;SDS011;58098;51.680;5.134;2023-09-18T03:59:00;21.33;;;13.30;;
70545;SDS011;58098;51.680;5.134;2023-09-18T04:01:26;23.23;;;13.43;;
70545;SDS011;58098;51.680;5.134;2023-09-18T04:03:52;21.80;;;13.43;;
70545;SDS011;58098;51.680;5.134;2023-09-18T04:06:18;19.90;;;12.60;;
70545;SDS011;58098;51.680;5.134;2023-09-18T04:08:45;17.80;;;12.82;;
70545;SDS011;58098;51.680;5.134;2023-09-18T04:11:11;21.93;;;13.37;;
70545;SDS011;58098;51.680;5.134;2023-09-18T04:13:36;21.10;;;13.47;;
70545;SDS011;58098;51.680;5.134;2023-09-18T04:16:02;18.23;;;13.00;;
70545;SDS011;58098;51.680;5.134;2023-09-18T04:18:29;21.33;;;13.63;;
70545;SDS011;58098;51.680;5.134;2023-09-18T04:20:54;18.77;;;12.87;;
70545;SDS011;58098;51.680;5.134;2023-09-18T04:25:50;21.20;;;13.63;;
70545;SDS011;58098;51.680;5.134;2023-09-18T04:28:17;19.30;;;12.70;;
70545;SDS011;58098;51.680;5.134;2023-09-18T04:30:44;21.15;;;12.70;;
70545;SDS011;58098;51.680;5.134;2023-09-18T04:33:10;19.27;;;12.88;;
70545;SDS011;58098;51.680;5.134;2023-09-18T04:35:36;23.43;;;13.33;;
70545;SDS011;58098;51.680;5.134;2023-09-18T04:38:04;21.65;;;12.60;;
70545;SDS011;58098;51.680;5.134;2023-09-18T04:40:31;22.90;;;13.93;;
70545;SDS011;58098;51.680;5.134;2023-09-18T04:43:00;22.35;;;13.10;;
70545;SDS011;58098;51.680;5.134;2023-09-18T04:45:26;24.80;;;13.40;;
70545;SDS011;58098;51.680;5.134;2023-09-18T04:47:52;19.52;;;12.95;;
70545;SDS011;58098;51.680;5.134;2023-09-18T04:50:18;18.70;;;12.57;;
70545;SDS011;58098;51.680;5.134;2023-09-18T04:52:43;22.30;;;13.10;;
70545;SDS011;58098;51.680;5.134;2023-09-18T04:55:09;20.03;;;13.20;;
70545;SDS011;58098;51.680;5.134;2023-09-18T04:57:35;20.73;;;12.73;;
70545;SDS011;58098;51.680;5.134;2023-09-18T05:00:01;24.23;;;14.35;;
70545;SDS011;58098;51.680;5.134;2023-09-18T05:02:27;19.97;;;13.17;;
70545;SDS011;58098;51.680;5.134;2023-09-18T05:04:52;20.27;;;13.60;;
70545;SDS011;58098;51.680;5.134;2023-09-18T05:07:18;25.87;;;13.90;;
70545;SDS011;58098;51.680;5.134;2023-09-18T05:09:43;21.00;;;14.57;;
70545;SDS011;58098;51.680;5.134;2023-09-18T05:12:09;20.23;;;12.80;;
70545;SDS011;58098;51.680;5.134;2023-09-18T05:14:39;24.75;;;14.27;;
70545;SDS011;58098;51.680;5.134;2023-09-18T05:17:05;22.13;;;13.85;;
70545;SDS011;58098;51.680;5.134;2023-09-18T05:19:31;22.30;;;14.10;;
70545;SDS011;58098;51.680;5.134;2023-09-18T05:21:56;22.07;;;14.10;;
70545;SDS011;58098;51.680;5.134;2023-09-18T05:24:21;25.17;;;15.60;;
70545;SDS011;58098;51.680;5.134;2023-09-18T05:26:52;25.15;;;14.23;;
70545;SDS011;58098;51.680;5.134;2023-09-18T05:29:17;23.33;;;14.53;;
70545;SDS011;58098;51.680;5.134;2023-09-18T05:31:43;23.08;;;14.15;;
70545;SDS011;58098;51.680;5.134;2023-09-18T05:34:08;22.73;;;14.10;;
70545;SDS011;58098;51.680;5.134;2023-09-18T05:36:34;23.90;;;14.68;;
70545;SDS011;58098;51.680;5.134;2023-09-18T05:39:00;19.07;;;13.80;;
70545;SDS011;58098;51.680;5.134;2023-09-18T05:41:25;23.60;;;12.90;;
70545;SDS011;58098;51.680;5.134;2023-09-18T05:43:53;22.05;;;13.32;;
70545;SDS011;58098;51.680;5.134;2023-09-18T05:46:19;21.97;;;13.47;;
70545;SDS011;58098;51.680;5.134;2023-09-18T05:48:44;20.55;;;13.32;;
70545;SDS011;58098;51.680;5.134;2023-09-18T05:51:09;21.03;;;13.40;;
70545;SDS011;58098;51.680;5.134;2023-09-18T05:53:35;22.43;;;13.10;;
70545;SDS011;58098;51.680;5.134;2023-09-18T05:56:00;18.47;;;12.27;;
70545;SDS011;58098;51.680;5.134;2023-09-18T05:58:29;22.80;;;12.77;;
70545;SDS011;58098;51.680;5.134;2023-09-18T06:00:57;17.98;;;11.93;;
70545;SDS011;58098;51.680;5.134;2023-09-18T06:03:23;18.63;;;11.77;;
70545;SDS011;58098;51.680;5.134;2023-09-18T06:05:48;21.38;;;11.75;;
70545;SDS011;58098;51.680;5.134;2023-09-18T06:08:14;19.53;;;11.53;;
70545;SDS011;58098;51.680;5.134;2023-09-18T06:10:39;15.67;;;10.50;;
70545;SDS011;58098;51.680;5.134;2023-09-18T06:13:04;17.97;;;9.80;;
70545;SDS011;58098;51.680;5.134;2023-09-18T06:15:31;15.93;;;9.80;;
70545;SDS011;58098;51.680;5.134;2023-09-18T06:17:57;13.18;;;9.05;;
70545;SDS011;58098;51.680;5.134;2023-09-18T06:20:22;15.53;;;9.27;;
70545;SDS011;58098;51.680;5.134;2023-09-18T06:22:47;15.20;;;8.93;;
70545;SDS011;58098;51.680;5.134;2023-09-18T06:25:13;14.03;;;8.00;;
70545;SDS011;58098;51.680;5.134;2023-09-18T06:27:39;11.65;;;8.02;;
70545;SDS011;58098;51.680;5.134;2023-09-18T06:30:05;14.40;;;8.27;;
70545;SDS011;58098;51.680;5.134;2023-09-18T06:32:31;12.65;;;7.82;;
70545;SDS011;58098;51.680;5.134;2023-09-18T06:34:56;10.67;;;7.67;;
70545;SDS011;58098;51.680;5.134;2023-09-18T06:37:25;9.73;;;7.47;;
70545;SDS011;58098;51.680;5.134;2023-09-18T06:39:50;12.83;;;7.60;;
70545;SDS011;58098;51.680;5.134;2023-09-18T06:42:16;13.05;;;6.90;;
70545;SDS011;58098;51.680;5.134;2023-09-18T06:44:41;12.57;;;5.80;;
70545;SDS011;58098;51.680;5.134;2023-09-18T06:47:07;9.32;;;6.30;;
70545;SDS011;58098;51.680;5.134;2023-09-18T06:49:32;11.30;;;6.40;;
70545;SDS011;58098;51.680;5.134;2023-09-18T06:51:59;7.32;;;5.47;;
70545;SDS011;58098;51.680;5.134;2023-09-18T06:54:24;9.93;;;5.17;;
70545;SDS011;58098;51.680;5.134;2023-09-18T06:56:49;8.77;;;5.37;;
70545;SDS011;58098;51.680;5.134;2023-09-18T06:59:15;9.27;;;5.30;;
70545;SDS011;58098;51.680;5.134;2023-09-18T07:01:40;7.47;;;4.47;;
70545;SDS011;58098;51.680;5.134;2023-09-18T07:04:07;6.63;;;4.80;;
70545;SDS011;58098;51.680;5.134;2023-09-18T07:06:33;9.20;;;5.30;;
70545;SDS011;58098;51.680;5.134;2023-09-18T07:08:58;8.33;;;4.90;;
70545;SDS011;58098;51.680;5.134;2023-09-18T07:11:24;7.88;;;4.43;;
70545;SDS011;58098;51.680;5.134;2023-09-18T07:13:50;7.35;;;4.50;;
70545;SDS011;58098;51.680;5.134;2023-09-18T07:16:15;4.90;;;3.70;;
70545;SDS011;58098;51.680;5.134;2023-09-18T07:18:41;7.33;;;4.50;;
70545;SDS011;58098;51.680;5.134;2023-09-18T07:21:06;6.17;;;4.43;;
70545;SDS011;58098;51.680;5.134;2023-09-18T07:23:32;7.05;;;4.18;;
70545;SDS011;58098;51.680;5.134;2023-09-18T07:26:02;6.07;;;4.10;;
70545;SDS011;58098;51.680;5.134;2023-09-18T07:28:27;6.93;;;4.10;;
70545;SDS011;58098;51.680;5.134;2023-09-18T07:30:53;5.53;;;4.03;;
70545;SDS011;58098;51.680;5.134;2023-09-18T07:33:18;7.03;;;4.43;;
70545;SDS011;58098;51.680;5.134;2023-09-18T07:35:45;6.15;;;4.00;;
70545;SDS011;58098;51.680;5.134;2023-09-18T07:38:12;7.68;;;4.18;;
70545;SDS011;58098;51.680;5.134;2023-09-18T07:40:37;4.57;;;4.10;;
70545;SDS011;58098;51.680;5.134;2023-09-18T07:43:03;5.33;;;3.83;;
70545;SDS011;58098;51.680;5.134;2023-09-18T07:45:28;9.30;;;3.80;;
70545;SDS011;58098;51.680;5.134;2023-09-18T07:47:53;9.20;;;4.07;;
70545;SDS011;58098;51.680;5.134;2023-09-18T07:50:19;7.90;;;3.87;;
70545;SDS011;58098;51.680;5.134;2023-09-18T07:52:44;7.30;;;3.45;;
70545;SDS011;58098;51.680;5.134;2023-09-18T07:55:09;6.73;;;3.17;;
70545;SDS011;58098;51.680;5.134;2023-09-18T07:57:35;5.27;;;3.53;;
70545;SDS011;58098;51.680;5.134;2023-09-18T08:00:02;6.38;;;3.00;;
70545;SDS011;58098;51.680;5.134;2023-09-18T08:02:32;6.70;;;3.10;;
70545;SDS011;58098;51.680;5.134;2023-09-18T08:04:59;6.93;;;2.80;;
70545;SDS011;58098;51.680;5.134;2023-09-18T08:07:25;7.22;;;3.22;;
70545;SDS011;58098;51.680;5.134;2023-09-18T08:09:50;6.00;;;3.23;;
70545;SDS011;58098;51.680;5.134;2023-09-18T08:12:16;8.53;;;3.60;;
70545;SDS011;58098;51.680;5.134;2023-09-18T08:14:41;6.50;;;3.13;;
70545;SDS011;58098;51.680;5.134;2023-09-18T08:17:07;4.72;;;3.13;;
70545;SDS011;58098;51.680;5.134;2023-09-18T08:19:32;6.90;;;3.60;;
70545;SDS011;58098;51.680;5.134;2023-09-18T08:21:58;4.88;;;3.25;;
70545;SDS011;58098;51.680;5.134;2023-09-18T08:24:26;5.93;;;2.87;;
70545;SDS011;58098;51.680;5.134;2023-09-18T08:26:52;5.50;;;3.35;;
70545;SDS011;58098;51.680;5.134;2023-09-18T08:29:17;4.37;;;3.10;;
70545;SDS011;58098;51.680;5.134;2023-09-18T08:31:43;10.03;;;3.17;;
70545;SDS011;58098;51.680;5.134;2023-09-18T08:34:08;5.65;;;3.70;;
70545;SDS011;58098;51.680;5.134;2023-09-18T08:36:33;6.30;;;3.50;;
70545;SDS011;58098;51.680;5.134;2023-09-18T08:38:59;8.70;;;3.50;;
70545;SDS011;58098;51.680;5.134;2023-09-18T08:41:28;4.23;;;3.43;;
70545;SDS011;58098;51.680;5.134;2023-09-18T08:44:02;4.82;;;3.88;;
70545;SDS011;58098;51.680;5.134;2023-09-18T08:46:29;6.30;;;3.43;;
70545;SDS011;58098;51.680;5.134;2023-09-18T08:48:56;5.38;;;3.40;;
70545;SDS011;58098;51.680;5.134;2023-09-18T08:51:22;6.22;;;3.17;;
70545;SDS011;58098;51.680;5.134;2023-09-18T08:53:48;5.68;;;2.85;;
70545;SDS011;58098;51.680;5.134;2023-09-18T08:56:14;6.30;;;3.13;;
70545;SDS011;58098;51.680;5.134;2023-09-18T08:58:42;8.30;;;3.22;;
70545;SDS011;58098;51.680;5.134;2023-09-18T09:01:08;4.47;;;3.13;;
70545;SDS011;58098;51.680;5.134;2023-09-18T09:03:36;5.97;;;3.03;;
70545;SDS011;58098;51.680;5.134;2023-09-18T09:06:03;6.85;;;3.25;;
70545;SDS011;58098;51.680;5.134;2023-09-18T09:08:29;6.57;;;3.00;;
70545;SDS011;58098;51.680;5.134;2023-09-18T09:10:54;4.47;;;3.20;;
70545;SDS011;58098;51.680;5.134;2023-09-18T09:13:23;5.83;;;2.87;;
70545;SDS011;58098;51.680;5.134;2023-09-18T09:15:51;5.20;;;2.88;;
70545;SDS011;58098;51.680;5.134;2023-09-18T09:18:21;4.80;;;3.78;;
70545;SDS011;58098;51.680;5.134;2023-09-18T09:20:58;8.15;;;4.00;;
70545;SDS011;58098;51.680;5.134;2023-09-18T09:26:18;7.23;;;4.10;;
70545;SDS011;58098;51.680;5.134;2023-09-18T09:28:45;7.57;;;3.25;;
70545;SDS011;58098;51.680;5.134;2023-09-18T09:31:11;7.10;;;3.58;;
70545;SDS011;58098;51.680;5.134;2023-09-18T09:33:51;5.10;;;3.53;;
70545;SDS011;58098;51.680;5.134;2023-09-18T09:36:25;10.60;;;3.60;;
70545;SDS011;58098;51.680;5.134;2023-09-18T09:38:55;8.13;;;3.33;;
70545;SDS011;58098;51.680;5.134;2023-09-18T09:41:24;8.20;;;4.10;;
70545;SDS011;58098;51.680;5.134;2023-09-18T09:43:52;8.52;;;4.40;;
70545;SDS011;58098;51.680;5.134;2023-09-18T09:46:21;8.90;;;4.13;;
70545;SDS011;58098;51.680;5.134;2023-09-18T09:49:05;7.47;;;4.32;;
70545;SDS011;58098;51.680;5.134;2023-09-18T09:51:33;9.70;;;3.80;;
70545;SDS011;58098;51.680;5.134;2023-09-18T09:54:01;7.90;;;4.00;;
70545;SDS011;58098;51.680;5.134;2023-09-18T09:59:13;9.82;;;4.03;;
70545;SDS011;58098;51.680;5.134;2023-09-18T10:01:40;8.55;;;4.15;;
70545;SDS011;58098;51.680;5.134;2023-09-18T10:04:09;6.85;;;3.63;;
70545;SDS011;58098;51.680;5.134;2023-09-18T10:06:42;10.20;;;4.43;;
70545;SDS011;58098;51.680;5.134;2023-09-18T10:09:09;7.03;;;4.40;;
70545;SDS011;58098;51.680;5.134;2023-09-18T10:11:39;9.73;;;4.15;;
70545;SDS011;58098;51.680;5.134;2023-09-18T10:16:32;10.33;;;4.50;;
70545;SDS011;58098;51.680;5.134;2023-09-18T10:24:25;9.97;;;4.40;;
70545;SDS011;58098;51.680;5.134;2023-09-18T10:27:00;8.80;;;4.47;;
70545;SDS011;58098;51.680;5.134;2023-09-18T10:29:28;11.98;;;4.53;;
70545;SDS011;58098;51.680;5.134;2023-09-18T10:31:55;8.60;;;4.25;;
70545;SDS011;58098;51.680;5.134;2023-09-18T10:34:22;10.17;;;4.90;;
70545;SDS011;58098;51.680;5.134;2023-09-18T10:36:49;10.40;;;4.00;;
70545;SDS011;58098;51.680;5.134;2023-09-18T10:39:15;5.50;;;3.80;;
70545;SDS011;58098;51.680;5.134;2023-09-18T10:41:47;4.88;;;3.90;;
70545;SDS011;58098;51.680;5.134;2023-09-18T10:44:13;8.60;;;4.10;;
70545;SDS011;58098;51.680;5.134;2023-09-18T10:46:40;7.70;;;4.00;;
70545;SDS011;58098;51.680;5.134;2023-09-18T10:49:06;6.90;;;4.22;;
70545;SDS011;58098;51.680;5.134;2023-09-18T10:51:32;10.97;;;4.00;;
70545;SDS011;58098;51.680;5.134;2023-09-18T10:54:01;7.85;;;4.10;;
70545;SDS011;58098;51.680;5.134;2023-09-18T10:56:28;7.50;;;4.13;;
70545;SDS011;58098;51.680;5.134;2023-09-18T10:58:59;6.70;;;4.17;;
70545;SDS011;58098;51.680;5.134;2023-09-18T11:01:27;8.65;;;4.38;;
70545;SDS011;58098;51.680;5.134;2023-09-18T11:03:57;6.23;;;4.17;;
70545;SDS011;58098;51.680;5.134;2023-09-18T11:06:25;6.38;;;4.68;;
70545;SDS011;58098;51.680;5.134;2023-09-18T11:08:55;7.10;;;4.82;;
70545;SDS011;58098;51.680;5.134;2023-09-18T11:11:26;6.18;;;3.90;;
70545;SDS011;58098;51.680;5.134;2023-09-18T11:13:55;8.88;;;4.32;;
70545;SDS011;58098;51.680;5.134;2023-09-18T11:18:53;8.70;;;4.60;;
70545;SDS011;58098;51.680;5.134;2023-09-18T11:21:30;6.97;;;4.20;;
70545;SDS011;58098;51.680;5.134;2023-09-18T11:23:58;8.75;;;5.00;;
70545;SDS011;58098;51.680;5.134;2023-09-18T11:26:24;10.38;;;4.70;;
70545;SDS011;58098;51.680;5.134;2023-09-18T11:28:54;9.33;;;4.80;;
70545;SDS011;58098;51.680;5.134;2023-09-18T11:31:19;7.93;;;4.60;;
70545;SDS011;58098;51.680;5.134;2023-09-18T11:33:47;7.63;;;4.70;;
70545;SDS011;58098;51.680;5.134;2023-09-18T11:36:13;9.75;;;4.50;;
70545;SDS011;58098;51.680;5.134;2023-09-18T11:38:56;9.10;;;4.85;;
70545;SDS011;58098;51.680;5.134;2023-09-18T11:41:26;8.13;;;4.28;;
70545;SDS011;58098;51.680;5.134;2023-09-18T11:43:53;5.22;;;4.15;;
70545;SDS011;58098;51.680;5.134;2023-09-18T11:46:38;13.17;;;4.57;;
70545;SDS011;58098;51.680;5.134;2023-09-18T11:49:05;6.47;;;4.20;;
70545;SDS011;58098;51.680;5.134;2023-09-18T11:51:32;10.50;;;4.63;;
70545;SDS011;58098;51.680;5.134;2023-09-18T11:53:58;6.23;;;3.80;;
70545;SDS011;58098;51.680;5.134;2023-09-18T11:56:24;8.35;;;4.20;;
70545;SDS011;58098;51.680;5.134;2023-09-18T11:58:50;8.77;;;4.13;;
70545;SDS011;58098;51.680;5.134;2023-09-18T12:01:20;7.18;;;3.78;;
70545;SDS011;58098;51.680;5.134;2023-09-18T12:03:52;7.45;;;3.58;;
70545;SDS011;58098;51.680;5.134;2023-09-18T12:06:38;6.60;;;4.07;;
70545;SDS011;58098;51.680;5.134;2023-09-18T12:09:04;9.77;;;4.55;;
70545;SDS011;58098;51.680;5.134;2023-09-18T12:11:32;9.47;;;4.43;;
70545;SDS011;58098;51.680;5.134;2023-09-18T12:13:59;5.65;;;4.40;;
70545;SDS011;58098;51.680;5.134;2023-09-18T12:16:25;6.70;;;4.10;;
70545;SDS011;58098;51.680;5.134;2023-09-18T12:18:50;7.90;;;4.15;;
70545;SDS011;58098;51.680;5.134;2023-09-18T12:21:16;8.27;;;4.13;;
70545;SDS011;58098;51.680;5.134;2023-09-18T12:23:45;5.53;;;3.88;;
70545;SDS011;58098;51.680;5.134;2023-09-18T12:26:15;7.80;;;3.77;;
70545;SDS011;58098;51.680;5.134;2023-09-18T12:28:41;7.57;;;3.67;;
70545;SDS011;58098;51.680;5.134;2023-09-18T12:31:11;4.53;;;3.40;;
70545;SDS011;58098;51.680;5.134;2023-09-18T12:33:38;7.78;;;3.40;;
70545;SDS011;58098;51.680;5.134;2023-09-18T12:36:05;7.68;;;3.58;;
70545;SDS011;58098;51.680;5.134;2023-09-18T12:38:31;8.30;;;3.70;;
70545;SDS011;58098;51.680;5.134;2023-09-18T12:40:57;6.00;;;3.30;;
70545;SDS011;58098;51.680;5.134;2023-09-18T12:43:37;4.70;;;3.47;;
70545;SDS011;58098;51.680;5.134;2023-09-18T12:46:05;7.13;;;3.60;;
70545;SDS011;58098;51.680;5.134;2023-09-18T12:48:32;7.60;;;3.50;;
70545;SDS011;58098;51.680;5.134;2023-09-18T12:51:05;4.57;;;3.47;;
70545;SDS011;58098;51.680;5.134;2023-09-18T12:53:30;5.38;;;3.25;;
70545;SDS011;58098;51.680;5.134;2023-09-18T12:56:06;6.95;;;3.70;;
70545;SDS011;58098;51.680;5.134;2023-09-18T12:58:37;6.80;;;3.45;;
70545;SDS011;58098;51.680;5.134;2023-09-18T13:01:04;7.78;;;3.47;;
70545;SDS011;58098;51.680;5.134;2023-09-18T13:03:33;5.47;;;3.20;;
70545;SDS011;58098;51.680;5.134;2023-09-18T13:06:06;7.25;;;3.10;;
70545;SDS011;58098;51.680;5.134;2023-09-18T13:08:33;5.85;;;3.65;;
70545;SDS011;58098;51.680;5.134;2023-09-18T13:10:58;10.33;;;3.20;;
70545;SDS011;58098;51.680;5.134;2023-09-18T13:13:28;6.50;;;3.58;;
70545;SDS011;58098;51.680;5.134;2023-09-18T13:15:56;5.45;;;3.40;;
70545;SDS011;58098;51.680;5.134;2023-09-18T13:18:24;7.05;;;3.40;;
70545;SDS011;58098;51.680;5.134;2023-09-18T13:20:50;11.20;;;3.10;;
70545;SDS011;58098;51.680;5.134;2023-09-18T13:23:16;4.72;;;3.58;;
70545;SDS011;58098;51.680;5.134;2023-09-18T13:25:41;4.87;;;3.00;;
70545;SDS011;58098;51.680;5.134;2023-09-18T13:28:12;6.18;;;2.92;;
70545;SDS011;58098;51.680;5.134;2023-09-18T13:30:39;5.70;;;3.07;;
70545;SDS011;58098;51.680;5.134;2023-09-18T13:33:09;6.78;;;3.10;;
70545;SDS011;58098;51.680;5.134;2023-09-18T13:35:36;3.55;;;3.13;;
70545;SDS011;58098;51.680;5.134;2023-09-18T13:38:04;4.70;;;2.80;;
70545;SDS011;58098;51.680;5.134;2023-09-18T13:40:34;5.05;;;2.97;;
70545;SDS011;58098;51.680;5.134;2023-09-18T13:43:01;5.03;;;2.90;;
70545;SDS011;58098;51.680;5.134;2023-09-18T13:45:29;4.35;;;3.05;;
70545;SDS011;58098;51.680;5.134;2023-09-18T13:47:55;5.25;;;2.97;;
70545;SDS011;58098;51.680;5.134;2023-09-18T13:50:20;4.40;;;2.90;;
70545;SDS011;58098;51.680;5.134;2023-09-18T13:52:46;6.07;;;3.20;;
70545;SDS011;58098;51.680;5.134;2023-09-18T13:55:11;7.03;;;3.03;;
70545;SDS011;58098;51.680;5.134;2023-09-18T13:57:37;6.27;;;3.00;;
70545;SDS011;58098;51.680;5.134;2023-09-18T14:00:02;6.13;;;3.13;;
70545;SDS011;58098;51.680;5.134;2023-09-18T14:02:31;5.90;;;3.13;;
70545;SDS011;58098;51.680;5.134;2023-09-18T14:04:57;6.30;;;3.13;;
70545;SDS011;58098;51.680;5.134;2023-09-18T14:07:22;6.93;;;3.00;;
70545;SDS011;58098;51.680;5.134;2023-09-18T14:09:48;5.83;;;2.93;;
70545;SDS011;58098;51.680;5.134;2023-09-18T14:12:14;5.50;;;3.15;;
70545;SDS011;58098;51.680;5.134;2023-09-18T14:14:40;5.80;;;3.50;;
70545;SDS011;58098;51.680;5.134;2023-09-18T14:17:06;5.82;;;3.10;;
70545;SDS011;58098;51.680;5.134;2023-09-18T14:19:32;5.93;;;3.00;;
70545;SDS011;58098;51.680;5.134;2023-09-18T14:21:57;4.85;;;2.80;;
70545;SDS011;58098;51.680;5.134;2023-09-18T14:24:28;5.43;;;3.00;;
70545;SDS011;58098;51.680;5.134;2023-09-18T14:26:53;5.50;;;3.08;;
70545;SDS011;58098;51.680;5.134;2023-09-18T14:29:20;7.67;;;2.93;;
70545;SDS011;58098;51.680;5.134;2023-09-18T14:31:46;5.95;;;3.13;;
70545;SDS011;58098;51.680;5.134;2023-09-18T14:34:11;6.60;;;2.67;;
70545;SDS011;58098;51.680;5.134;2023-09-18T14:36:36;4.40;;;2.87;;
70545;SDS011;58098;51.680;5.134;2023-09-18T14:39:04;4.72;;;2.85;;
70545;SDS011;58098;51.680;5.134;2023-09-18T14:41:29;7.63;;;2.70;;
70545;SDS011;58098;51.680;5.134;2023-09-18T14:43:55;5.57;;;2.63;;
70545;SDS011;58098;51.680;5.134;2023-09-18T14:46:23;8.27;;;2.80;;
70545;SDS011;58098;51.680;5.134;2023-09-18T14:48:49;5.40;;;2.80;;
70545;SDS011;58098;51.680;5.134;2023-09-18T14:51:15;6.43;;;1.70;;
70545;SDS011;58098;51.680;5.134;2023-09-18T14:53:40;7.83;;;1.70;;
70545;SDS011;58098;51.680;5.134;2023-09-18T14:56:05;8.30;;;2.17;;